Capt. Leroy — WCZ5746 — position and weather

sailwx.info

Track history (hours):
 
Tides and Currents Weather Stations Pressure Air Temp Water Temp Dewpoint Dewpoint Depression Visibility Wind Speed Wind Dir Waves Ship Positions

Capt. Leroy

Owner: MISS MONIE TOWING INC, HULL, TX. More information available from US FCC via Universal Licensing System and Coast Guard Vessel Documentation Center.

Last reported at 2017-Oct-19 01:30 UTC. Time now 2017-Oct-19 01:42 UTC.
Position N 29°36' W 095°01'.

Length 21 m.

Type: Towing. MMSI: 366961670.

Date/timePositionNaut miles runAvg speedWind from/ knotsBaromVisibWave heightAir tempDewpointWater temp
2017-Oct-19 01:30N 29°36' W 095°01'0 0.0
2017-Oct-19 01:00N 29°36' W 095°01'0 0.0
2017-Oct-19 00:30N 29°36' W 095°01'0 0.0
2017-Oct-19 00:00N 29°36' W 095°01'0 0.0
2017-Oct-18 23:30N 29°36' W 095°01'0 0.0
2017-Oct-18 23:00N 29°36' W 095°01'0 0.0
2017-Oct-18 22:30N 29°36' W 095°01'0 0.0
2017-Oct-18 22:00N 29°36' W 095°01'0 0.0
2017-Oct-18 21:30N 29°36' W 095°01'0 0.0
2017-Oct-18 21:00N 29°36' W 095°01'0 0.0
2017-Oct-18 20:27N 29°36' W 095°01'0 0.1
2017-Oct-18 20:00N 29°37' W 095°01'2 3.3
2017-Oct-18 19:30N 29°37' W 094°59'2 3.1
2017-Oct-18 18:45N 29°39' W 094°58'1 5.1
2017-Oct-18 18:29N 29°40' W 094°59'9 1.2
2017-Oct-18 11:14N 29°46' W 095°06'1 5.1
2017-Oct-18 10:57N 29°46' W 095°05'0 0.4
2017-Oct-18 10:26N 29°46' W 095°05'1 0.3
2017-Oct-18 08:53N 29°46' W 095°05'2 1.6
2017-Oct-18 07:41N 29°47' W 095°04'1 3.7
2017-Oct-18 07:18N 29°46' W 095°05'1 4.9
2017-Oct-18 06:59N 29°45' W 095°04'3 5.0
2017-Oct-18 06:27N 29°43' W 095°01'2 4.7
2017-Oct-18 06:00N 29°42' W 094°60'3 5.1
2017-Oct-18 05:30N 29°39' W 094°58'3 5.2
2017-Oct-18 05:01N 29°37' W 094°58'3 5.6
2017-Oct-18 04:30N 29°37' W 095°01'1 1.0
2017-Oct-18 04:01N 29°37' W 095°01'0 0.0
2017-Oct-18 03:31N 29°37' W 095°01'0 0.0
2017-Oct-18 03:00N 29°37' W 095°01'0 0.0
2017-Oct-18 02:31N 29°37' W 095°01'0 0.0
2017-Oct-18 02:00N 29°37' W 095°01'0 0.0
2017-Oct-18 01:31N 29°37' W 095°01'0 0.0
2017-Oct-18 01:01N 29°37' W 095°01'0 0.0
2017-Oct-18 00:31N 29°37' W 095°01'0 0.0
2017-Oct-18 00:00N 29°37' W 095°01'0 0.0
2017-Oct-17 23:31N 29°37' W 095°01'0 0.0
2017-Oct-17 23:00N 29°37' W 095°01'0 0.0
2017-Oct-17 22:31N 29°37' W 095°01'0 0.0
2017-Oct-17 22:00N 29°37' W 095°01'0 0.0
2017-Oct-17 21:31N 29°37' W 095°01'0 0.0
2017-Oct-17 21:00N 29°37' W 095°01'0 0.0
2017-Oct-17 20:31N 29°37' W 095°01'0 0.0
2017-Oct-17 20:01N 29°37' W 095°01'0 0.0
2017-Oct-17 19:30N 29°37' W 095°01'0 0.0
2017-Oct-17 19:00N 29°37' W 095°01'0 0.0
2017-Oct-17 18:30N 29°37' W 095°01'0 0.0
2017-Oct-17 18:01N 29°37' W 095°01'0 0.0
2017-Oct-17 17:31N 29°36' W 095°01'0 0.0
2017-Oct-17 17:00N 29°37' W 095°01'0 0.0
2017-Oct-17 16:31N 29°37' W 095°01'0 0.0
2017-Oct-17 16:01N 29°37' W 095°01'0 0.0
2017-Oct-17 15:30N 29°37' W 095°01'0 0.0
2017-Oct-17 15:00N 29°37' W 095°01'0 0.0
2017-Oct-17 14:31N 29°37' W 095°01'0 0.5
2017-Oct-17 14:00N 29°37' W 095°01'0 0.5
2017-Oct-17 13:31N 29°37' W 095°01'0 0.0
2017-Oct-17 13:01N 29°37' W 095°01'0 0.0
2017-Oct-17 12:31N 29°37' W 095°01'0 0.0
2017-Oct-17 12:01N 29°37' W 095°01'0 0.0
2017-Oct-17 11:31N 29°37' W 095°01'0 0.0
2017-Oct-17 11:01N 29°37' W 095°01'0 0.0
2017-Oct-17 10:30N 29°37' W 095°01'0 0.0
2017-Oct-17 10:00N 29°37' W 095°01'2 3.6
2017-Oct-17 09:30N 29°37' W 094°59'3 4.3
2017-Oct-17 08:54N 29°39' W 094°58'3 6.3
2017-Oct-17 08:23N 29°42' W 095°00'6 0.9
2017-Oct-17 02:08N 29°46' W 095°05'1 4.0
2017-Oct-17 02:00N 29°45' W 095°06'1 0.1
2017-Oct-16 08:08N 29°46' W 095°04'1 5.7
2017-Oct-16 08:00N 29°45' W 095°04'3 5.5
2017-Oct-16 07:29N 29°43' W 095°01'2 4.9
2017-Oct-16 07:00N 29°42' W 094°59'2 4.3
2017-Oct-16 06:29N 29°41' W 094°57'2 1.0
2017-Oct-16 04:30N 29°43' W 094°57'1 1.8
2017-Oct-16 03:50N 29°42' W 094°56'1 1.5
2017-Oct-16 03:25N 29°42' W 094°55'1 2.6
2017-Oct-16 03:00N 29°41' W 094°56'2 3.1
2017-Oct-16 02:20N 29°41' W 094°58'11 2.1
2017-Oct-15 21:09N 29°45' W 095°10'1 2.8
2017-Oct-15 20:57N 29°44' W 095°10'5 2.6
2017-Oct-15 19:10N 29°46' W 095°04'1 2.9
2017-Oct-15 18:58N 29°45' W 095°04'1 2.5
2017-Oct-15 18:30N 29°44' W 095°03'1 3.0
2017-Oct-15 18:00N 29°44' W 095°02'7 1.4
2017-Oct-15 13:09N 29°45' W 095°10'4 0.2
2017-Oct-14 10:51N 29°43' W 095°15'4 6.3
2017-Oct-14 10:16N 29°45' W 095°11'2 6.4
2017-Oct-14 09:59N 29°44' W 095°09'7 0.3
2017-Oct-13 14:57N 29°44' W 095°16'0 0.0
2017-Oct-13 14:23N 29°44' W 095°16'0 0.0
2017-Oct-13 13:57N 29°44' W 095°16'0 0.0
2017-Oct-13 13:29N 29°44' W 095°16'0 0.0
2017-Oct-13 13:00N 29°44' W 095°16'0 0.0
2017-Oct-13 12:26N 29°44' W 095°16'0 0.0
2017-Oct-13 12:00N 29°44' W 095°16'1 2.1
2017-Oct-13 11:30N 29°43' W 095°15'5 2.6
2017-Oct-13 09:32N 29°44' W 095°09'0 5.9
2017-Oct-13 09:28N 29°44' W 095°09'4 3.0
2017-Oct-13 08:16N 29°46' W 095°05'1 0.3
2017-Oct-13 06:16N 29°45' W 095°06'0 0.4
2017-Oct-13 05:52N 29°45' W 095°06'2 0.1
2017-Oct-12 16:26N 29°45' W 095°04'3 4.1
2017-Oct-12 15:49N 29°44' W 095°02'1 4.2
2017-Oct-12 15:30N 29°42' W 095°01'2 2.7
2017-Oct-12 14:48N 29°43' W 095°03'0 0.2
2017-Oct-12 14:30N 29°43' W 095°03'0 0.1
2017-Oct-12 13:22N 29°43' W 095°03'0 0.0
2017-Oct-12 12:59N 29°43' W 095°03'0 0.0
2017-Oct-12 06:03N 29°43' W 095°03'0 0.0
2017-Oct-12 05:56N 29°43' W 095°03'0 0.0
2017-Oct-12 00:51N 29°43' W 095°03'0 0.1
2017-Oct-12 00:31N 29°43' W 095°03'3 0.1
2017-Oct-10 23:14N 29°45' W 095°06'3 5.2
2017-Oct-10 22:45N 29°44' W 095°08'2 2.0
2017-Oct-10 21:49N 29°45' W 095°10'2 5.3
2017-Oct-10 21:27N 29°44' W 095°08'3 5.1
2017-Oct-10 20:57N 29°45' W 095°11'2 1.5
2017-Oct-10 19:28N 29°43' W 095°13'2 3.8
2017-Oct-10 19:00N 29°43' W 095°15'1 1.2
2017-Oct-10 17:55N 29°44' W 095°17'6 4.6
2017-Oct-10 16:34N 29°44' W 095°09'4 1.2
2017-Oct-10 13:25N 29°46' W 095°05'3 6.6
2017-Oct-10 12:59N 29°44' W 095°08'3 6.9
2017-Oct-10 12:29N 29°45' W 095°12'2 2.3
2017-Oct-10 11:47N 29°45' W 095°10'5 0.6
2017-Oct-10 03:58N 29°46' W 095°05'1 0.1
2017-Oct-09 16:26N 29°45' W 095°04'3 5.8
2017-Oct-09 15:54N 29°44' W 095°01'2 0.4
2017-Oct-09 11:05N 29°43' W 095°03'0 0.8
2017-Oct-09 10:59N 29°43' W 095°03'  
Track history (hours):
 
Tides and Currents Weather Stations Pressure Air Temp Water Temp Dewpoint Dewpoint Depression Visibility Wind Speed Wind Dir Waves Ship Positions

Capt. Leroy

Owner: MISS MONIE TOWING INC, HULL, TX. More information available from US FCC via Universal Licensing System and Coast Guard Vessel Documentation Center.

Last reported at 2017-Oct-19 01:30 UTC. Time now 2017-Oct-19 01:42 UTC.
Position N 29°36' W 095°01'.

Length 21 m.

Type: Towing. MMSI: 366961670.

Date/timePositionNaut miles runAvg speedWind from/ knotsBaromVisibWave heightAir tempDewpointWater temp
2017-Oct-19 01:30N 29°36' W 095°01'0 0.0
2017-Oct-19 01:00N 29°36' W 095°01'0 0.0
2017-Oct-19 00:30N 29°36' W 095°01'0 0.0
2017-Oct-19 00:00N 29°36' W 095°01'0 0.0
2017-Oct-18 23:30N 29°36' W 095°01'0 0.0
2017-Oct-18 23:00N 29°36' W 095°01'0 0.0
2017-Oct-18 22:30N 29°36' W 095°01'0 0.0
2017-Oct-18 22:00N 29°36' W 095°01'0 0.0
2017-Oct-18 21:30N 29°36' W 095°01'0 0.0
2017-Oct-18 21:00N 29°36' W 095°01'0 0.0
2017-Oct-18 20:27N 29°36' W 095°01'0 0.1
2017-Oct-18 20:00N 29°37' W 095°01'2 3.3
2017-Oct-18 19:30N 29°37' W 094°59'2 3.1
2017-Oct-18 18:45N 29°39' W 094°58'1 5.1
2017-Oct-18 18:29N 29°40' W 094°59'9 1.2
2017-Oct-18 11:14N 29°46' W 095°06'1 5.1
2017-Oct-18 10:57N 29°46' W 095°05'0 0.4
2017-Oct-18 10:26N 29°46' W 095°05'1 0.3
2017-Oct-18 08:53N 29°46' W 095°05'2 1.6
2017-Oct-18 07:41N 29°47' W 095°04'1 3.7
2017-Oct-18 07:18N 29°46' W 095°05'1 4.9
2017-Oct-18 06:59N 29°45' W 095°04'3 5.0
2017-Oct-18 06:27N 29°43' W 095°01'2 4.7
2017-Oct-18 06:00N 29°42' W 094°60'3 5.1
2017-Oct-18 05:30N 29°39' W 094°58'3 5.2
2017-Oct-18 05:01N 29°37' W 094°58'3 5.6
2017-Oct-18 04:30N 29°37' W 095°01'1 1.0
2017-Oct-18 04:01N 29°37' W 095°01'0 0.0
2017-Oct-18 03:31N 29°37' W 095°01'0 0.0
2017-Oct-18 03:00N 29°37' W 095°01'0 0.0
2017-Oct-18 02:31N 29°37' W 095°01'0 0.0
2017-Oct-18 02:00N 29°37' W 095°01'0 0.0
2017-Oct-18 01:31N 29°37' W 095°01'0 0.0
2017-Oct-18 01:01N 29°37' W 095°01'0 0.0
2017-Oct-18 00:31N 29°37' W 095°01'0 0.0
2017-Oct-18 00:00N 29°37' W 095°01'0 0.0
2017-Oct-17 23:31N 29°37' W 095°01'0 0.0
2017-Oct-17 23:00N 29°37' W 095°01'0 0.0
2017-Oct-17 22:31N 29°37' W 095°01'0 0.0
2017-Oct-17 22:00N 29°37' W 095°01'0 0.0
2017-Oct-17 21:31N 29°37' W 095°01'0 0.0
2017-Oct-17 21:00N 29°37' W 095°01'0 0.0
2017-Oct-17 20:31N 29°37' W 095°01'0 0.0
2017-Oct-17 20:01N 29°37' W 095°01'0 0.0
2017-Oct-17 19:30N 29°37' W 095°01'0 0.0
2017-Oct-17 19:00N 29°37' W 095°01'0 0.0
2017-Oct-17 18:30N 29°37' W 095°01'0 0.0
2017-Oct-17 18:01N 29°37' W 095°01'0 0.0
2017-Oct-17 17:31N 29°36' W 095°01'0 0.0
2017-Oct-17 17:00N 29°37' W 095°01'0 0.0
2017-Oct-17 16:31N 29°37' W 095°01'0 0.0
2017-Oct-17 16:01N 29°37' W 095°01'0 0.0
2017-Oct-17 15:30N 29°37' W 095°01'0 0.0
2017-Oct-17 15:00N 29°37' W 095°01'0 0.0
2017-Oct-17 14:31N 29°37' W 095°01'0 0.5
2017-Oct-17 14:00N 29°37' W 095°01'0 0.5
2017-Oct-17 13:31N 29°37' W 095°01'0 0.0
2017-Oct-17 13:01N 29°37' W 095°01'0 0.0
2017-Oct-17 12:31N 29°37' W 095°01'0 0.0
2017-Oct-17 12:01N 29°37' W 095°01'0 0.0
2017-Oct-17 11:31N 29°37' W 095°01'0 0.0
2017-Oct-17 11:01N 29°37' W 095°01'0 0.0
2017-Oct-17 10:30N 29°37' W 095°01'0 0.0
2017-Oct-17 10:00N 29°37' W 095°01'2 3.6
2017-Oct-17 09:30N 29°37' W 094°59'3 4.3
2017-Oct-17 08:54N 29°39' W 094°58'3 6.3
2017-Oct-17 08:23N 29°42' W 095°00'6 0.9
2017-Oct-17 02:08N 29°46' W 095°05'1 4.0
2017-Oct-17 02:00N 29°45' W 095°06'1 0.1
2017-Oct-16 08:08N 29°46' W 095°04'1 5.7
2017-Oct-16 08:00N 29°45' W 095°04'3 5.5
2017-Oct-16 07:29N 29°43' W 095°01'2 4.9
2017-Oct-16 07:00N 29°42' W 094°59'2 4.3
2017-Oct-16 06:29N 29°41' W 094°57'2 1.0
2017-Oct-16 04:30N 29°43' W 094°57'1 1.8
2017-Oct-16 03:50N 29°42' W 094°56'1 1.5
2017-Oct-16 03:25N 29°42' W 094°55'1 2.6
2017-Oct-16 03:00N 29°41' W 094°56'2 3.1
2017-Oct-16 02:20N 29°41' W 094°58'11 2.1
2017-Oct-15 21:09N 29°45' W 095°10'1 2.8
2017-Oct-15 20:57N 29°44' W 095°10'5 2.6
2017-Oct-15 19:10N 29°46' W 095°04'1 2.9
2017-Oct-15 18:58N 29°45' W 095°04'1 2.5
2017-Oct-15 18:30N 29°44' W 095°03'1 3.0
2017-Oct-15 18:00N 29°44' W 095°02'7 1.4
2017-Oct-15 13:09N 29°45' W 095°10'4 0.2
2017-Oct-14 10:51N 29°43' W 095°15'4 6.3
2017-Oct-14 10:16N 29°45' W 095°11'2 6.4
2017-Oct-14 09:59N 29°44' W 095°09'7 0.3
2017-Oct-13 14:57N 29°44' W 095°16'0 0.0
2017-Oct-13 14:23N 29°44' W 095°16'0 0.0
2017-Oct-13 13:57N 29°44' W 095°16'0 0.0
2017-Oct-13 13:29N 29°44' W 095°16'0 0.0
2017-Oct-13 13:00N 29°44' W 095°16'0 0.0
2017-Oct-13 12:26N 29°44' W 095°16'0 0.0
2017-Oct-13 12:00N 29°44' W 095°16'1 2.1
2017-Oct-13 11:30N 29°43' W 095°15'5 2.6
2017-Oct-13 09:32N 29°44' W 095°09'0 5.9
2017-Oct-13 09:28N 29°44' W 095°09'4 3.0
2017-Oct-13 08:16N 29°46' W 095°05'1 0.3
2017-Oct-13 06:16N 29°45' W 095°06'0 0.4
2017-Oct-13 05:52N 29°45' W 095°06'2 0.1
2017-Oct-12 16:26N 29°45' W 095°04'3 4.1
2017-Oct-12 15:49N 29°44' W 095°02'1 4.2
2017-Oct-12 15:30N 29°42' W 095°01'2 2.7
2017-Oct-12 14:48N 29°43' W 095°03'0 0.2
2017-Oct-12 14:30N 29°43' W 095°03'0 0.1
2017-Oct-12 13:22N 29°43' W 095°03'0 0.0
2017-Oct-12 12:59N 29°43' W 095°03'0 0.0
2017-Oct-12 06:03N 29°43' W 095°03'0 0.0
2017-Oct-12 05:56N 29°43' W 095°03'0 0.0
2017-Oct-12 00:51N 29°43' W 095°03'0 0.1
2017-Oct-12 00:31N 29°43' W 095°03'3 0.1
2017-Oct-10 23:14N 29°45' W 095°06'3 5.2
2017-Oct-10 22:45N 29°44' W 095°08'2 2.0
2017-Oct-10 21:49N 29°45' W 095°10'2 5.3
2017-Oct-10 21:27N 29°44' W 095°08'3 5.1
2017-Oct-10 20:57N 29°45' W 095°11'2 1.5
2017-Oct-10 19:28N 29°43' W 095°13'2 3.8
2017-Oct-10 19:00N 29°43' W 095°15'1 1.2
2017-Oct-10 17:55N 29°44' W 095°17'6 4.6
2017-Oct-10 16:34N 29°44' W 095°09'4 1.2
2017-Oct-10 13:25N 29°46' W 095°05'3 6.6
2017-Oct-10 12:59N 29°44' W 095°08'3 6.9
2017-Oct-10 12:29N 29°45' W 095°12'2 2.3
2017-Oct-10 11:47N 29°45' W 095°10'5 0.6
2017-Oct-10 03:58N 29°46' W 095°05'1 0.1
2017-Oct-09 16:26N 29°45' W 095°04'3 5.8
2017-Oct-09 15:54N 29°44' W 095°01'2 0.4
2017-Oct-09 11:05N 29°43' W 095°03'0 0.8
2017-Oct-09 10:59N 29°43' W 095°03'  

Dump ship's entire track history